createdAt,value
2019-03-12T00:01:02.485Z,14.00
2019-03-12T00:03:42.037Z,18.90
2019-03-12T00:12:49.922Z,20.23
2019-03-12T00:15:44.912Z,24.57
2019-03-12T00:18:22.441Z,23.37
2019-03-12T00:20:59.569Z,20.30
2019-03-12T00:23:36.915Z,21.20
2019-03-12T00:26:14.053Z,20.57
2019-03-12T00:28:52.181Z,22.53
2019-03-12T00:31:40.551Z,21.03
2019-03-12T00:34:31.066Z,21.80
2019-03-12T00:37:13.118Z,20.80
2019-03-12T00:39:50.196Z,18.83
2019-03-12T00:42:27.485Z,20.00
2019-03-12T00:48:19.089Z,20.77
2019-03-12T00:50:56.313Z,20.80
2019-03-12T00:53:42.119Z,20.57
2019-03-12T00:56:39.623Z,14.47
2019-03-12T00:59:16.688Z,18.77
2019-03-12T01:01:53.746Z,18.07
2019-03-12T01:04:39.741Z,17.87
2019-03-12T01:07:16.950Z,20.13
2019-03-12T01:09:54.084Z,18.67
2019-03-12T01:12:42.854Z,19.73
2019-03-12T01:15:20.041Z,22.57
2019-03-12T01:17:57.120Z,21.17
2019-03-12T01:20:34.221Z,18.23
2019-03-12T01:23:11.423Z,19.30
2019-03-12T01:25:48.648Z,18.27
2019-03-12T01:28:25.908Z,18.93
2019-03-12T01:31:03.151Z,21.17
2019-03-12T01:33:44.608Z,18.53
2019-03-12T01:36:21.722Z,23.47
2019-03-12T01:39:10.657Z,18.27
2019-03-12T01:41:51.983Z,22.73
2019-03-12T01:44:29.051Z,20.13
2019-03-12T01:47:08.881Z,25.20
2019-03-12T01:53:05.241Z,24.83
2019-03-12T01:55:42.462Z,23.20
2019-03-12T01:58:19.715Z,23.47
2019-03-12T02:01:28.658Z,26.97
2019-03-12T02:04:18.470Z,27.67
2019-03-12T02:07:18.652Z,26.07
2019-03-12T02:09:55.973Z,20.80
2019-03-12T02:12:33.082Z,28.03
2019-03-12T02:15:26.445Z,29.93
2019-03-12T02:18:05.282Z,27.77
2019-03-12T02:20:45.156Z,25.80
2019-03-12T02:23:22.249Z,25.70
2019-03-12T02:26:01.148Z,27.80
2019-03-12T02:28:38.702Z,26.97
2019-03-12T02:31:38.813Z,25.40
2019-03-12T02:34:10.474Z,25.30
2019-03-12T02:36:50.699Z,19.10
2019-03-12T02:39:27.918Z,22.37
2019-03-12T02:42:12.294Z,26.73
2019-03-12T02:44:48.251Z,24.90
2019-03-12T02:47:25.473Z,23.03
2019-03-12T02:50:02.651Z,25.27
2019-03-12T02:52:39.749Z,20.70
2019-03-12T02:55:17.932Z,22.77
2019-03-12T02:57:57.442Z,24.20
2019-03-12T03:00:48.272Z,24.03
2019-03-12T03:03:41.385Z,20.10
2019-03-12T03:06:42.994Z,20.77
2019-03-12T03:09:20.099Z,20.13
2019-03-12T03:11:57.206Z,22.60
2019-03-12T03:14:40.922Z,20.77
2019-03-12T03:20:23.153Z,22.00
2019-03-12T03:23:00.748Z,19.40
2019-03-12T03:25:37.955Z,19.77
2019-03-12T03:28:15.250Z,21.73
2019-03-12T03:30:52.538Z,21.27
2019-03-12T03:33:29.602Z,20.07
2019-03-12T03:36:06.730Z,24.33
2019-03-12T03:39:10.099Z,25.63
2019-03-12T03:41:47.239Z,23.43
2019-03-12T03:44:26.985Z,26.37
2019-03-12T03:47:14.642Z,21.60
2019-03-12T03:49:51.847Z,22.17
2019-03-12T03:52:28.958Z,24.07
2019-03-12T03:55:09.509Z,21.70
2019-03-12T03:57:46.623Z,25.80
2019-03-12T04:00:24.761Z,24.50
2019-03-12T04:03:01.808Z,26.13
2019-03-12T04:05:38.957Z,26.67
2019-03-12T04:08:16.189Z,24.50
2019-03-12T04:10:53.389Z,25.27
2019-03-12T04:13:30.510Z,22.20
2019-03-12T04:16:07.744Z,23.97
2019-03-12T04:18:44.767Z,25.67
2019-03-12T04:21:22.114Z,22.33
2019-03-12T04:23:59.335Z,25.37
2019-03-12T04:26:36.672Z,22.07
2019-03-12T04:29:13.694Z,21.53
2019-03-12T04:31:50.834Z,25.47
2019-03-12T04:34:27.944Z,21.23
2019-03-12T04:37:05.046Z,23.03
2019-03-12T04:39:42.104Z,22.60
2019-03-12T04:42:19.235Z,18.23
2019-03-12T04:44:56.260Z,21.43
2019-03-12T04:47:38.451Z,22.03
2019-03-12T04:50:18.553Z,17.37
2019-03-12T04:52:57.550Z,17.87
2019-03-12T04:55:34.677Z,18.23
2019-03-12T04:58:21.101Z,18.87
2019-03-12T05:01:19.609Z,13.47
2019-03-12T05:04:19.217Z,18.20
2019-03-12T05:06:53.157Z,13.93
2019-03-12T05:09:30.238Z,15.50
2019-03-12T05:12:07.305Z,15.03
2019-03-12T05:14:44.364Z,17.73
2019-03-12T05:17:36.183Z,18.00
2019-03-12T05:20:16.267Z,18.10
2019-03-12T05:22:53.363Z,15.20
2019-03-12T05:25:30.490Z,15.43
2019-03-12T05:28:07.830Z,19.40
2019-03-12T05:30:44.934Z,18.47
2019-03-12T05:33:22.030Z,17.90
2019-03-12T05:35:59.081Z,21.70
2019-03-12T05:38:36.327Z,18.60
2019-03-12T05:41:13.539Z,19.37
2019-03-12T05:43:52.444Z,17.97
2019-03-12T05:46:29.485Z,18.10
2019-03-12T05:49:06.579Z,18.83
2019-03-12T05:51:43.606Z,19.03
2019-03-12T05:54:20.686Z,16.53
2019-03-12T05:56:57.726Z,17.30
2019-03-12T05:59:34.914Z,15.33
2019-03-12T06:02:11.955Z,19.53
2019-03-12T06:04:49.057Z,19.93
2019-03-12T06:07:26.298Z,19.07
2019-03-12T06:10:04.957Z,14.30
2019-03-12T06:12:42.083Z,19.80
2019-03-12T06:15:19.152Z,23.27
2019-03-12T06:17:56.217Z,16.83
2019-03-12T06:20:33.304Z,16.47
2019-03-12T06:23:10.464Z,16.60
2019-03-12T06:25:47.598Z,20.67
2019-03-12T06:28:24.626Z,17.97
2019-03-12T06:31:03.378Z,19.37
2019-03-12T06:33:58.541Z,19.97
2019-03-12T06:36:40.200Z,17.40
2019-03-12T06:39:18.911Z,16.60
2019-03-12T06:42:13.834Z,15.77
2019-03-12T06:44:58.274Z,14.67
2019-03-12T06:47:53.727Z,16.67
2019-03-12T06:50:35.442Z,13.83
2019-03-12T06:53:19.886Z,14.80
2019-03-12T06:56:15.315Z,15.83
2019-03-12T06:58:54.282Z,11.80
2019-03-12T07:01:33.036Z,10.77
2019-03-12T07:04:17.454Z,11.60
2019-03-12T07:07:12.900Z,12.37
2019-03-12T07:09:57.684Z,13.73
2019-03-12T07:12:36.927Z,13.60
2019-03-12T07:15:32.482Z,12.70
2019-03-12T07:18:11.177Z,10.77
2019-03-12T07:21:05.202Z,14.13
2019-03-12T07:23:53.636Z,14.17
2019-03-12T07:26:38.361Z,9.97
2019-03-12T07:29:29.398Z,12.70
2019-03-12T07:32:08.133Z,15.43
2019-03-12T07:34:49.866Z,12.60
2019-03-12T07:37:38.900Z,9.03
2019-03-12T07:40:22.372Z,8.37
2019-03-12T07:43:01.000Z,9.23
2019-03-12T07:45:51.717Z,9.57
2019-03-12T07:48:35.980Z,11.50
2019-03-12T07:51:30.136Z,9.93
2019-03-12T07:54:21.149Z,9.57
2019-03-12T07:57:08.731Z,10.67
2019-03-12T07:59:50.199Z,12.03
2019-03-12T08:02:31.591Z,11.67
2019-03-12T08:05:16.279Z,13.10
2019-03-12T08:07:55.091Z,10.43
2019-03-12T08:10:36.497Z,11.13
2019-03-12T08:13:18.180Z,9.33
2019-03-12T08:16:02.875Z,14.50
2019-03-12T08:18:50.761Z,14.30
2019-03-12T08:21:35.421Z,12.47
2019-03-12T08:24:29.586Z,11.03
2019-03-12T08:27:16.861Z,12.10
2019-03-12T08:29:58.288Z,13.13
2019-03-12T08:32:45.734Z,12.37
2019-03-12T08:35:24.425Z,12.33
2019-03-12T08:38:12.219Z,14.17
2019-03-12T08:40:53.500Z,12.20
2019-03-12T08:43:34.925Z,13.00
2019-03-12T08:46:13.648Z,12.27
2019-03-12T08:48:58.002Z,12.40
2019-03-12T08:51:42.790Z,12.63
2019-03-12T08:54:21.673Z,10.67
2019-03-12T08:57:15.484Z,13.33
2019-03-12T09:00:03.412Z,11.83
2019-03-12T09:02:42.138Z,13.50
2019-03-12T09:05:20.816Z,14.27
2019-03-12T09:08:08.548Z,15.20
2019-03-12T09:11:05.339Z,17.93
2019-03-12T09:13:52.353Z,12.83
2019-03-12T09:16:33.157Z,13.67
2019-03-12T09:19:28.457Z,13.70
2019-03-12T09:22:22.310Z,17.00
2019-03-12T09:25:03.982Z,13.53
2019-03-12T09:27:59.849Z,11.77
2019-03-12T09:30:58.120Z,13.00
2019-03-12T09:33:37.332Z,12.90
2019-03-12T09:36:16.036Z,14.23
2019-03-12T09:39:06.808Z,13.53
2019-03-12T09:41:48.203Z,15.07
2019-03-12T09:44:26.847Z,13.37
2019-03-12T09:47:08.508Z,11.87
2019-03-12T09:50:02.747Z,12.47
2019-03-12T09:52:44.141Z,10.77
2019-03-12T09:55:25.979Z,12.77
2019-03-12T09:58:16.706Z,13.03
2019-03-12T10:01:04.463Z,10.37
2019-03-12T10:03:58.205Z,14.77
2019-03-12T10:06:48.686Z,13.37
2019-03-12T10:09:33.829Z,12.43
2019-03-12T10:12:15.121Z,10.50
2019-03-12T10:14:56.651Z,10.23
2019-03-12T10:17:35.811Z,10.17
2019-03-12T10:20:26.836Z,12.03
2019-03-12T10:23:21.885Z,12.53
2019-03-12T10:26:03.326Z,11.17
2019-03-12T10:28:58.841Z,12.50
2019-03-12T10:31:54.447Z,14.00
2019-03-12T10:34:42.834Z,12.37
2019-03-12T10:37:22.975Z,11.80
2019-03-12T10:40:03.687Z,13.33
2019-03-12T10:43:00.271Z,13.87
2019-03-12T10:45:56.371Z,16.07
2019-03-12T10:48:40.898Z,15.70
2019-03-12T10:51:22.976Z,15.07
2019-03-12T10:54:03.514Z,17.27
2019-03-12T10:56:49.938Z,15.27
2019-03-12T10:59:33.943Z,17.33
2019-03-12T11:02:18.171Z,14.97
2019-03-12T11:04:59.362Z,16.83
2019-03-12T11:07:41.115Z,14.63
2019-03-12T11:10:23.486Z,16.50
2019-03-12T11:13:14.299Z,15.17
2019-03-12T11:15:53.647Z,15.43
2019-03-12T11:18:40.917Z,15.57
2019-03-12T11:21:23.815Z,16.47
2019-03-12T11:24:10.235Z,15.03
2019-03-12T11:26:54.858Z,13.10
2019-03-12T11:29:40.541Z,10.03
2019-03-12T11:32:22.130Z,14.30
2019-03-12T11:35:06.142Z,14.33
2019-03-12T11:37:48.280Z,12.93
2019-03-12T11:40:32.295Z,10.93
2019-03-12T11:43:19.613Z,11.30
2019-03-12T11:46:03.210Z,9.97
2019-03-12T11:48:46.127Z,8.37
2019-03-12T11:51:30.955Z,9.57
2019-03-12T11:54:17.880Z,11.23
2019-03-12T11:57:09.088Z,8.97
2019-03-12T12:00:03.558Z,11.33
2019-03-12T12:03:00.251Z,9.10
2019-03-12T12:05:46.047Z,10.07
2019-03-12T12:08:35.818Z,9.07
2019-03-12T12:11:18.425Z,8.37
2019-03-12T12:14:05.442Z,8.17
2019-03-12T12:16:50.009Z,9.07
2019-03-12T12:19:32.381Z,10.57
2019-03-12T12:22:18.336Z,8.80
2019-03-12T12:25:13.914Z,8.83
2019-03-12T12:27:50.987Z,9.57
2019-03-12T12:30:28.027Z,6.63
2019-03-12T12:33:05.164Z,5.20
2019-03-12T12:35:42.214Z,6.63
2019-03-12T12:38:24.219Z,8.10
2019-03-12T12:41:03.367Z,8.10
2019-03-12T12:43:40.432Z,6.93
2019-03-12T12:46:17.479Z,9.73
2019-03-12T12:48:55.563Z,8.83
2019-03-12T12:51:32.601Z,9.03
2019-03-12T12:54:10.019Z,5.50
2019-03-12T12:56:47.532Z,7.97
2019-03-12T12:59:24.556Z,8.53
2019-03-12T13:02:01.572Z,6.60
2019-03-12T13:04:38.655Z,6.37
2019-03-12T13:07:15.649Z,13.47
2019-03-12T13:09:55.905Z,10.27
2019-03-12T13:12:32.946Z,11.03
2019-03-12T13:15:12.903Z,9.27
2019-03-12T13:17:49.955Z,8.63
2019-03-12T13:20:27.058Z,7.90
2019-03-12T13:23:04.039Z,10.97
2019-03-12T13:25:41.105Z,8.27
2019-03-12T13:28:18.088Z,8.13
2019-03-12T13:30:55.168Z,11.07
2019-03-12T13:33:32.176Z,11.33
2019-03-12T13:36:10.898Z,12.80
2019-03-12T13:38:48.585Z,9.97
2019-03-12T13:41:26.003Z,7.97
2019-03-12T13:44:03.143Z,8.30
2019-03-12T13:46:40.273Z,6.97
2019-03-12T13:49:17.247Z,9.23
2019-03-12T13:51:54.451Z,7.23
2019-03-12T13:54:31.516Z,7.97
2019-03-12T13:57:08.605Z,7.13
2019-03-12T13:59:47.676Z,8.23
2019-03-12T14:02:32.165Z,8.10
2019-03-12T14:05:10.820Z,12.63
2019-03-12T14:07:48.378Z,8.53
2019-03-12T14:10:26.122Z,8.83
2019-03-12T14:13:03.196Z,10.43
2019-03-12T14:15:40.217Z,9.83
2019-03-12T14:18:17.284Z,12.07
2019-03-12T14:21:00.738Z,5.53
2019-03-12T14:23:41.103Z,7.33
2019-03-12T14:26:18.600Z,6.00
2019-03-12T14:28:57.066Z,4.37
2019-03-12T14:31:34.125Z,4.67
2019-03-12T14:34:11.360Z,7.87
2019-03-12T14:36:48.385Z,7.57
2019-03-12T14:39:25.485Z,5.10
2019-03-12T14:42:02.518Z,3.63
2019-03-12T14:44:39.606Z,6.23
2019-03-12T14:47:16.612Z,4.73
2019-03-12T14:49:53.707Z,4.40
2019-03-12T14:52:30.713Z,5.17
2019-03-12T14:55:07.874Z,5.23
2019-03-12T14:57:44.909Z,5.80
2019-03-12T15:00:26.494Z,6.47
2019-03-12T15:03:03.540Z,5.77
2019-03-12T15:05:40.659Z,8.83
2019-03-12T15:08:17.702Z,5.70
2019-03-12T15:10:54.833Z,5.83
2019-03-12T15:13:31.860Z,12.87
2019-03-12T15:16:08.973Z,8.23
2019-03-12T15:18:46.091Z,5.83
2019-03-12T15:21:23.201Z,7.53
2019-03-12T15:24:01.390Z,8.43
2019-03-12T15:26:39.477Z,7.43
2019-03-12T15:29:16.530Z,6.87
2019-03-12T15:32:03.673Z,6.03
2019-03-12T15:34:32.245Z,9.20
2019-03-12T15:37:09.350Z,12.43
2019-03-12T15:39:48.924Z,6.73
2019-03-12T15:42:26.000Z,8.07
2019-03-12T15:45:03.197Z,7.70
2019-03-12T15:47:40.337Z,8.23
2019-03-12T15:50:19.144Z,6.27
2019-03-12T15:52:56.178Z,7.40
2019-03-12T15:55:33.218Z,7.77
2019-03-12T15:58:10.284Z,18.93
2019-03-12T16:00:47.307Z,9.63
2019-03-12T16:03:24.384Z,12.30
2019-03-12T16:06:01.378Z,9.37
2019-03-12T16:08:39.754Z,10.07
2019-03-12T16:11:17.077Z,8.13
2019-03-12T16:13:54.450Z,8.57
2019-03-12T16:16:31.489Z,9.57
2019-03-12T16:19:08.581Z,8.10
2019-03-12T16:21:46.942Z,14.27
2019-03-12T16:24:24.228Z,23.20
2019-03-12T16:27:03.311Z,19.83
2019-03-12T16:29:40.280Z,20.83
2019-03-12T16:32:17.295Z,19.33
2019-03-12T16:34:54.395Z,18.47
2019-03-12T16:37:31.516Z,17.57
2019-03-12T16:40:16.367Z,18.27
2019-03-12T16:42:53.370Z,17.07
2019-03-12T16:45:30.481Z,17.13
2019-03-12T16:48:07.501Z,17.33
2019-03-12T16:50:44.596Z,22.30
2019-03-12T16:53:21.725Z,24.47
2019-03-12T16:55:58.854Z,21.07
2019-03-12T16:58:35.866Z,18.97
2019-03-12T17:01:12.957Z,20.90
2019-03-12T17:03:49.960Z,18.13
2019-03-12T17:06:27.070Z,16.13
2019-03-12T17:09:05.079Z,18.87
2019-03-12T17:11:42.156Z,18.17
2019-03-12T17:14:19.197Z,19.70
2019-03-12T17:16:56.266Z,17.60
2019-03-12T17:19:33.320Z,17.73
2019-03-12T17:22:11.741Z,22.37
2019-03-12T17:24:51.400Z,23.17
2019-03-12T17:27:29.610Z,26.17
2019-03-12T17:30:15.719Z,24.87
2019-03-12T17:32:52.809Z,20.33
2019-03-12T17:35:35.723Z,20.30
2019-03-12T17:38:12.842Z,18.73
2019-03-12T17:40:49.905Z,17.37
2019-03-12T17:43:26.960Z,21.17
2019-03-12T17:46:05.055Z,21.17
2019-03-12T17:48:42.139Z,22.10
2019-03-12T17:51:19.165Z,23.53
2019-03-12T17:53:57.572Z,24.27
2019-03-12T17:56:34.606Z,22.27
2019-03-12T17:59:11.845Z,20.27
2019-03-12T18:01:48.915Z,18.97
2019-03-12T18:04:26.581Z,19.00
2019-03-12T18:07:04.261Z,18.47
2019-03-12T18:09:41.793Z,28.33
2019-03-12T18:12:31.197Z,21.73
2019-03-12T18:15:14.150Z,18.70
2019-03-12T18:17:51.091Z,22.47
2019-03-12T18:20:28.177Z,22.83
2019-03-12T18:23:05.801Z,19.50
2019-03-12T18:25:48.750Z,25.03
2019-03-12T18:28:25.757Z,22.50
2019-03-12T18:31:02.858Z,22.13
2019-03-12T18:33:41.472Z,19.50
2019-03-12T18:36:18.533Z,17.33
2019-03-12T18:38:57.308Z,23.37
2019-03-12T18:41:35.497Z,21.37
2019-03-12T18:44:12.546Z,22.00
2019-03-12T18:46:52.707Z,19.70
2019-03-12T18:49:31.246Z,24.90
2019-03-12T18:52:08.293Z,25.90
2019-03-12T18:54:45.344Z,23.33
2019-03-12T18:57:23.227Z,24.10
2019-03-12T19:00:00.467Z,23.27
2019-03-12T19:02:37.569Z,25.40
2019-03-12T19:05:14.618Z,24.60
2019-03-12T19:07:51.717Z,25.17
2019-03-12T19:10:28.791Z,28.93
2019-03-12T19:13:05.897Z,25.07
2019-03-12T19:15:43.000Z,23.63
2019-03-12T19:18:21.796Z,25.73
2019-03-12T19:20:58.962Z,28.93
2019-03-12T19:23:37.377Z,30.00
2019-03-12T19:26:15.601Z,24.13
2019-03-12T19:28:52.766Z,19.57
2019-03-12T19:31:31.509Z,19.83
2019-03-12T19:34:11.658Z,21.13
2019-03-12T19:36:48.977Z,17.93
2019-03-12T19:39:26.308Z,19.70
2019-03-12T19:42:06.130Z,21.13
2019-03-12T19:44:43.562Z,25.50
2019-03-12T19:47:20.827Z,23.13
2019-03-12T19:49:58.085Z,20.97
2019-03-12T19:52:35.358Z,20.67
2019-03-12T19:55:15.711Z,18.07
2019-03-12T19:57:53.043Z,23.17
2019-03-12T20:00:30.252Z,23.40
2019-03-12T20:03:13.409Z,18.20
2019-03-12T20:05:46.048Z,16.93
2019-03-12T20:08:24.718Z,20.17
2019-03-12T20:11:30.701Z,21.20
2019-03-12T20:14:37.737Z,18.97
2019-03-12T20:17:39.145Z,21.73
2019-03-12T20:20:45.406Z,19.70
2019-03-12T20:23:53.479Z,16.77
2019-03-12T20:26:48.842Z,16.83
2019-03-12T20:29:46.625Z,18.70
2019-03-12T20:32:49.542Z,16.03
2019-03-12T20:35:45.007Z,15.10
2019-03-12T20:38:58.812Z,15.40
2019-03-12T20:41:41.889Z,17.30
2019-03-12T20:44:42.010Z,17.60
2019-03-12T20:47:55.800Z,14.13
2019-03-12T20:51:05.349Z,13.93
2019-03-12T20:54:19.304Z,17.00
2019-03-12T20:57:34.006Z,17.37
2019-03-12T21:00:35.046Z,17.47
2019-03-12T21:03:36.900Z,19.20
2019-03-12T21:06:51.864Z,19.27
2019-03-12T21:09:54.892Z,21.10
2019-03-12T21:13:10.210Z,20.57
2019-03-12T21:16:16.626Z,24.40
2019-03-12T21:19:08.891Z,23.93
2019-03-12T21:22:07.903Z,20.87
2019-03-12T21:24:50.749Z,18.80
2019-03-12T21:27:37.133Z,18.47
2019-03-12T21:30:13.339Z,22.87
2019-03-12T21:32:50.350Z,23.07
2019-03-12T21:35:27.524Z,27.07
2019-03-12T21:38:04.548Z,28.13
2019-03-12T21:40:42.614Z,29.03
2019-03-12T21:43:19.640Z,29.17
2019-03-12T21:45:56.753Z,29.50
2019-03-12T21:48:33.766Z,37.90
2019-03-12T21:51:10.878Z,33.43
2019-03-12T21:53:47.881Z,34.63
2019-03-12T21:56:25.005Z,33.50
2019-03-12T21:59:03.101Z,32.20
2019-03-12T22:01:43.333Z,33.03
2019-03-12T22:04:25.792Z,32.13
2019-03-12T22:07:03.936Z,33.67
2019-03-12T22:09:47.400Z,33.27
2019-03-12T22:12:29.949Z,32.57
2019-03-12T22:15:13.934Z,30.43
2019-03-12T22:17:58.942Z,28.33
2019-03-12T22:20:43.269Z,27.70
2019-03-12T22:23:23.637Z,28.77
2019-03-12T22:26:05.202Z,25.57
2019-03-12T22:28:50.538Z,24.87
2019-03-12T22:31:42.077Z,25.93
2019-03-12T22:34:23.451Z,23.20
2019-03-12T22:37:20.671Z,26.50
2019-03-12T22:40:12.284Z,22.03
2019-03-12T22:43:07.043Z,22.73
2019-03-12T22:45:59.793Z,21.17
2019-03-12T22:51:59.779Z,19.93
2019-03-12T22:54:39.529Z,20.13
2019-03-12T22:57:24.327Z,21.97
2019-03-12T23:00:07.533Z,21.63
2019-03-12T23:02:57.705Z,22.37
2019-03-12T23:05:49.483Z,20.13
2019-03-12T23:08:35.390Z,22.43
2019-03-12T23:11:32.965Z,18.17
2019-03-12T23:14:21.722Z,19.27
2019-03-12T23:17:05.113Z,19.60
2019-03-12T23:19:48.355Z,19.63
2019-03-12T23:22:35.883Z,19.97
2019-03-12T23:25:17.603Z,18.43
2019-03-12T23:28:06.749Z,20.27
2019-03-12T23:30:49.662Z,22.17
2019-03-12T23:33:41.508Z,20.87
2019-03-12T23:36:34.125Z,21.23
2019-03-12T23:39:20.499Z,22.53
2019-03-12T23:42:11.642Z,20.13
2019-03-12T23:44:49.513Z,21.13
2019-03-12T23:47:34.090Z,20.80
2019-03-12T23:50:25.339Z,19.63
2019-03-12T23:53:01.962Z,20.07
2019-03-12T23:55:46.909Z,17.27
2019-03-12T23:58:31.194Z,18.83
